sensor_id;sensor_type;location;lat;lon;timestamp;pressure;altitude;pressure_sealevel;temperature;humidity
47726;BME280;33483;48.294;16.388;2023-02-01T00:02:15;99637.13;;;3.98;100.00
47726;BME280;33483;48.294;16.388;2023-02-01T00:04:42;99648.09;;;3.98;100.00
47726;BME280;33483;48.294;16.388;2023-02-01T00:07:09;99643.09;;;3.97;100.00
47726;BME280;33483;48.294;16.388;2023-02-01T00:09:42;99638.09;;;3.95;100.00
47726;BME280;33483;48.294;16.388;2023-02-01T00:12:09;99638.38;;;3.97;100.00
47726;BME280;33483;48.294;16.388;2023-02-01T00:14:36;99633.34;;;3.96;100.00
47726;BME280;33483;48.294;16.388;2023-02-01T00:17:05;99618.91;;;3.95;100.00
47726;BME280;33483;48.294;16.388;2023-02-01T00:19:33;99615.19;;;3.98;100.00
47726;BME280;33483;48.294;16.388;2023-02-01T00:22:00;99617.13;;;3.92;100.00
47726;BME280;33483;48.294;16.388;2023-02-01T00:24:27;99606.69;;;3.96;100.00
47726;BME280;33483;48.294;16.388;2023-02-01T00:26:55;99615.75;;;4.02;100.00
47726;BME280;33483;48.294;16.388;2023-02-01T00:29:22;99595.84;;;4.07;100.00
47726;BME280;33483;48.294;16.388;2023-02-01T00:31:52;99619.28;;;4.08;100.00
47726;BME280;33483;48.294;16.388;2023-02-01T00:34:21;99619.50;;;4.05;100.00
47726;BME280;33483;48.294;16.388;2023-02-01T00:36:49;99627.25;;;4.06;100.00
47726;BME280;33483;48.294;16.388;2023-02-01T00:39:19;99635.00;;;4.08;100.00
47726;BME280;33483;48.294;16.388;2023-02-01T00:41:46;99649.19;;;4.06;100.00
47726;BME280;33483;48.294;16.388;2023-02-01T00:44:15;99643.91;;;4.03;100.00
47726;BME280;33483;48.294;16.388;2023-02-01T00:46:42;99627.19;;;4.01;100.00
47726;BME280;33483;48.294;16.388;2023-02-01T00:49:09;99636.91;;;4.02;100.00
47726;BME280;33483;48.294;16.388;2023-02-01T00:51:37;99636.84;;;3.96;100.00
47726;BME280;33483;48.294;16.388;2023-02-01T00:54:06;99652.09;;;3.97;100.00
47726;BME280;33483;48.294;16.388;2023-02-01T00:56:34;99633.34;;;3.96;100.00
47726;BME280;33483;48.294;16.388;2023-02-01T00:59:00;99656.31;;;3.98;100.00
47726;BME280;33483;48.294;16.388;2023-02-01T01:01:28;99657.28;;;3.95;100.00
47726;BME280;33483;48.294;16.388;2023-02-01T01:03:58;99662.97;;;3.92;100.00
47726;BME280;33483;48.294;16.388;2023-02-01T01:06:26;99670.63;;;3.88;100.00
47726;BME280;33483;48.294;16.388;2023-02-01T01:08:57;99676.19;;;3.93;100.00
47726;BME280;33483;48.294;16.388;2023-02-01T01:11:27;99686.41;;;3.93;100.00
47726;BME280;33483;48.294;16.388;2023-02-01T01:13:55;99673.47;;;3.93;100.00
47726;BME280;33483;48.294;16.388;2023-02-01T01:16:23;99677.69;;;3.94;100.00
47726;BME280;33483;48.294;16.388;2023-02-01T01:18:51;99672.00;;;3.98;100.00
47726;BME280;33483;48.294;16.388;2023-02-01T01:21:19;99681.75;;;3.99;100.00
47726;BME280;33483;48.294;16.388;2023-02-01T01:23:46;99685.19;;;3.94;100.00
47726;BME280;33483;48.294;16.388;2023-02-01T01:26:15;99673.88;;;3.86;100.00
47726;BME280;33483;48.294;16.388;2023-02-01T01:28:42;99676.31;;;3.84;100.00
47726;BME280;33483;48.294;16.388;2023-02-01T01:31:10;99666.88;;;3.85;100.00
47726;BME280;33483;48.294;16.388;2023-02-01T01:33:38;99667.09;;;3.82;100.00
47726;BME280;33483;48.294;16.388;2023-02-01T01:36:10;99661.25;;;3.74;100.00
47726;BME280;33483;48.294;16.388;2023-02-01T01:38:38;99665.56;;;3.81;100.00
47726;BME280;33483;48.294;16.388;2023-02-01T01:41:05;99646.38;;;3.81;100.00
47726;BME280;33483;48.294;16.388;2023-02-01T01:43:49;99651.09;;;3.80;100.00
47726;BME280;33483;48.294;16.388;2023-02-01T01:46:21;99656.03;;;3.76;100.00
47726;BME280;33483;48.294;16.388;2023-02-01T01:51:58;99648.31;;;3.75;100.00
47726;BME280;33483;48.294;16.388;2023-02-01T01:54:32;99654.47;;;3.90;100.00
47726;BME280;33483;48.294;16.388;2023-02-01T01:57:13;99650.28;;;3.94;100.00
47726;BME280;33483;48.294;16.388;2023-02-01T01:59:41;99652.63;;;4.01;100.00
47726;BME280;33483;48.294;16.388;2023-02-01T02:02:12;99662.63;;;4.04;100.00
47726;BME280;33483;48.294;16.388;2023-02-01T02:04:39;99650.44;;;4.05;100.00
47726;BME280;33483;48.294;16.388;2023-02-01T02:07:08;99656.19;;;4.07;100.00
47726;BME280;33483;48.294;16.388;2023-02-01T02:09:38;99647.19;;;4.07;100.00
47726;BME280;33483;48.294;16.388;2023-02-01T02:12:14;99645.97;;;4.08;100.00
47726;BME280;33483;48.294;16.388;2023-02-01T02:14:41;99650.50;;;4.11;100.00
47726;BME280;33483;48.294;16.388;2023-02-01T02:38:01;99692.53;;;4.42;100.00
47726;BME280;33483;48.294;16.388;2023-02-01T02:40:33;99697.03;;;4.45;100.00
47726;BME280;33483;48.294;16.388;2023-02-01T02:43:18;99695.53;;;4.44;100.00
47726;BME280;33483;48.294;16.388;2023-02-01T02:49:06;99704.03;;;4.46;100.00
47726;BME280;33483;48.294;16.388;2023-02-01T02:54:23;99697.03;;;4.45;100.00
47726;BME280;33483;48.294;16.388;2023-02-01T02:57:10;99695.34;;;4.48;100.00
47726;BME280;33483;48.294;16.388;2023-02-01T02:59:58;99692.84;;;4.50;100.00
47726;BME280;33483;48.294;16.388;2023-02-01T03:02:46;99696.81;;;4.49;100.00
47726;BME280;33483;48.294;16.388;2023-02-01T03:05:34;99693.59;;;4.50;100.00
47726;BME280;33483;48.294;16.388;2023-02-01T03:08:03;99687.34;;;4.50;100.00
47726;BME280;33483;48.294;16.388;2023-02-01T03:20:58;99706.25;;;4.42;100.00
47726;BME280;33483;48.294;16.388;2023-02-01T03:23:27;99704.72;;;4.41;100.00
47726;BME280;33483;48.294;16.388;2023-02-01T03:25:58;99705.69;;;4.38;100.00
47726;BME280;33483;48.294;16.388;2023-02-01T03:28:27;99714.41;;;4.37;100.00
47726;BME280;33483;48.294;16.388;2023-02-01T03:30:55;99706.09;;;4.31;100.00
47726;BME280;33483;48.294;16.388;2023-02-01T03:33:23;99703.00;;;4.24;100.00
47726;BME280;33483;48.294;16.388;2023-02-01T03:46:32;99691.78;;;4.22;100.00
47726;BME280;33483;48.294;16.388;2023-02-01T03:49:02;99707.97;;;4.20;100.00
47726;BME280;33483;48.294;16.388;2023-02-01T03:51:30;99713.25;;;4.23;100.00
47726;BME280;33483;48.294;16.388;2023-02-01T03:53:58;99710.53;;;4.29;100.00
47726;BME280;33483;48.294;16.388;2023-02-01T03:56:26;99714.31;;;4.31;100.00
47726;BME280;33483;48.294;16.388;2023-02-01T03:58:54;99710.53;;;4.29;100.00
47726;BME280;33483;48.294;16.388;2023-02-01T04:01:32;99726.00;;;4.26;100.00
47726;BME280;33483;48.294;16.388;2023-02-01T04:04:02;99716.78;;;4.29;100.00
47726;BME280;33483;48.294;16.388;2023-02-01T04:06:31;99719.59;;;4.35;100.00
47726;BME280;33483;48.294;16.388;2023-02-01T04:09:01;99714.81;;;4.30;100.00
47726;BME280;33483;48.294;16.388;2023-02-01T04:11:31;99715.56;;;4.30;100.00
47726;BME280;33483;48.294;16.388;2023-02-01T04:13:58;99726.28;;;4.28;100.00
47726;BME280;33483;48.294;16.388;2023-02-01T04:16:31;99720.56;;;4.32;100.00
47726;BME280;33483;48.294;16.388;2023-02-01T04:19:01;99713.34;;;4.34;100.00
47726;BME280;33483;48.294;16.388;2023-02-01T04:21:28;99712.88;;;4.36;100.00
47726;BME280;33483;48.294;16.388;2023-02-01T04:23:57;99715.28;;;4.28;100.00
47726;BME280;33483;48.294;16.388;2023-02-01T04:26:25;99717.28;;;4.28;100.00
47726;BME280;33483;48.294;16.388;2023-02-01T04:28:51;99702.59;;;4.31;100.00
47726;BME280;33483;48.294;16.388;2023-02-01T04:31:19;99699.44;;;4.38;100.00
47726;BME280;33483;48.294;16.388;2023-02-01T04:33:52;99699.44;;;4.38;100.00
47726;BME280;33483;48.294;16.388;2023-02-01T04:36:21;99692.94;;;4.35;100.00
47726;BME280;33483;48.294;16.388;2023-02-01T04:38:49;99706.94;;;4.37;100.00
47726;BME280;33483;48.294;16.388;2023-02-01T04:41:16;99692.25;;;4.40;100.00
47726;BME280;33483;48.294;16.388;2023-02-01T04:43:46;99685.56;;;4.47;100.00
47726;BME280;33483;48.294;16.388;2023-02-01T04:46:14;99677.13;;;4.50;100.00
47726;BME280;33483;48.294;16.388;2023-02-01T04:48:41;99682.56;;;4.45;100.00
47726;BME280;33483;48.294;16.388;2023-02-01T04:51:09;99671.84;;;4.47;100.00
47726;BME280;33483;48.294;16.388;2023-02-01T04:53:39;99682.56;;;4.45;100.00
47726;BME280;33483;48.294;16.388;2023-02-01T04:56:08;99680.56;;;4.45;100.00
47726;BME280;33483;48.294;16.388;2023-02-01T04:58:35;99678.31;;;4.44;100.00
47726;BME280;33483;48.294;16.388;2023-02-01T05:01:05;99673.59;;;4.44;100.00
47726;BME280;33483;48.294;16.388;2023-02-01T05:03:33;99677.34;;;4.47;100.00
47726;BME280;33483;48.294;16.388;2023-02-01T05:06:00;99672.63;;;4.47;100.00
47726;BME280;33483;48.294;16.388;2023-02-01T05:08:27;99666.09;;;4.45;100.00
47726;BME280;33483;48.294;16.388;2023-02-01T05:10:55;99662.84;;;4.46;100.00
47726;BME280;33483;48.294;16.388;2023-02-01T05:13:23;99664.09;;;4.45;100.00
47726;BME280;33483;48.294;16.388;2023-02-01T05:16:09;99674.38;;;4.50;100.00
47726;BME280;33483;48.294;16.388;2023-02-01T05:18:38;99673.69;;;4.55;100.00
47726;BME280;33483;48.294;16.388;2023-02-01T05:21:06;99673.47;;;4.59;100.00
47726;BME280;33483;48.294;16.388;2023-02-01T05:23:32;99664.25;;;4.62;100.00
47726;BME280;33483;48.294;16.388;2023-02-01T05:26:20;99666.28;;;4.62;100.00
47726;BME280;33483;48.294;16.388;2023-02-01T05:28:47;99659.53;;;4.63;100.00
47726;BME280;33483;48.294;16.388;2023-02-01T05:31:14;99669.28;;;4.64;100.00
47726;BME280;33483;48.294;16.388;2023-02-01T05:33:41;99666.06;;;4.65;100.00
47726;BME280;33483;48.294;16.388;2023-02-01T05:36:08;99664.31;;;4.68;100.00
47726;BME280;33483;48.294;16.388;2023-02-01T05:38:35;99659.88;;;4.70;100.00
47726;BME280;33483;48.294;16.388;2023-02-01T05:41:05;99651.63;;;4.70;100.00
47726;BME280;33483;48.294;16.388;2023-02-01T05:43:31;99649.66;;;4.71;100.00
47726;BME280;33483;48.294;16.388;2023-02-01T05:45:59;99650.13;;;4.69;100.00
47726;BME280;33483;48.294;16.388;2023-02-01T05:48:28;99647.13;;;4.67;100.00
47726;BME280;33483;48.294;16.388;2023-02-01T05:50:55;99640.88;;;4.67;100.00
47726;BME280;33483;48.294;16.388;2023-02-01T05:53:24;99642.91;;;4.72;100.00
47726;BME280;33483;48.294;16.388;2023-02-01T05:55:52;99643.69;;;4.72;100.00
47726;BME280;33483;48.294;16.388;2023-02-01T05:58:19;99640.88;;;4.67;100.00
47726;BME280;33483;48.294;16.388;2023-02-01T06:00:46;99649.59;;;4.65;100.00
47726;BME280;33483;48.294;16.388;2023-02-01T06:03:13;99652.63;;;4.67;100.00
47726;BME280;33483;48.294;16.388;2023-02-01T06:05:43;99657.34;;;4.67;100.00
47726;BME280;33483;48.294;16.388;2023-02-01T06:08:10;99667.56;;;4.66;100.00
47726;BME280;33483;48.294;16.388;2023-02-01T06:10:38;99656.78;;;4.63;100.00
47726;BME280;33483;48.294;16.388;2023-02-01T06:13:05;99662.63;;;4.70;100.00
47726;BME280;33483;48.294;16.388;2023-02-01T06:15:32;99659.09;;;4.70;100.00
47726;BME280;33483;48.294;16.388;2023-02-01T06:17:59;99661.38;;;4.71;100.00
47726;BME280;33483;48.294;16.388;2023-02-01T06:20:26;99658.63;;;4.71;100.00
47726;BME280;33483;48.294;16.388;2023-02-01T06:22:53;99670.22;;;4.81;100.00
47726;BME280;33483;48.294;16.388;2023-02-01T06:25:20;99662.50;;;4.85;100.00
47726;BME280;33483;48.294;16.388;2023-02-01T06:27:48;99664.56;;;4.90;100.00
47726;BME280;33483;48.294;16.388;2023-02-01T06:30:15;99663.78;;;4.89;100.00
47726;BME280;33483;48.294;16.388;2023-02-01T06:32:43;99662.31;;;4.94;100.00
47726;BME280;33483;48.294;16.388;2023-02-01T06:35:11;99672.09;;;4.95;100.00
47726;BME280;33483;48.294;16.388;2023-02-01T06:37:42;99667.66;;;5.03;100.00
47726;BME280;33483;48.294;16.388;2023-02-01T06:40:12;99673.19;;;5.08;100.00
47726;BME280;33483;48.294;16.388;2023-02-01T06:42:39;99681.53;;;5.19;100.00
47726;BME280;33483;48.294;16.388;2023-02-01T06:45:06;99683.25;;;5.17;100.00
47726;BME280;33483;48.294;16.388;2023-02-01T06:47:36;99684.50;;;5.16;100.00
47726;BME280;33483;48.294;16.388;2023-02-01T06:50:04;99699.19;;;5.13;100.00
47726;BME280;33483;48.294;16.388;2023-02-01T06:52:35;99691.88;;;5.04;100.00
47726;BME280;33483;48.294;16.388;2023-02-01T06:55:04;99686.81;;;4.97;100.00
47726;BME280;33483;48.294;16.388;2023-02-01T06:57:31;99676.06;;;4.94;100.00
47726;BME280;33483;48.294;16.388;2023-02-01T07:00:02;99669.06;;;4.93;100.00
47726;BME280;33483;48.294;16.388;2023-02-01T07:02:29;99683.06;;;4.95;100.00
47726;BME280;33483;48.294;16.388;2023-02-01T07:04:56;99687.81;;;4.94;100.00
47726;BME280;33483;48.294;16.388;2023-02-01T07:07:23;99685.34;;;4.96;100.00
47726;BME280;33483;48.294;16.388;2023-02-01T07:09:51;99689.84;;;4.99;100.00
47726;BME280;33483;48.294;16.388;2023-02-01T07:12:18;99680.16;;;5.04;100.00
47726;BME280;33483;48.294;16.388;2023-02-01T07:14:46;99684.91;;;5.03;100.00
47726;BME280;33483;48.294;16.388;2023-02-01T07:17:12;99678.63;;;5.03;100.00
47726;BME280;33483;48.294;16.388;2023-02-01T07:19:40;99675.47;;;5.10;100.00
47726;BME280;33483;48.294;16.388;2023-02-01T07:22:07;99687.00;;;5.14;100.00
47726;BME280;33483;48.294;16.388;2023-02-01T07:24:34;99670.00;;;5.15;100.00
47726;BME280;33483;48.294;16.388;2023-02-01T07:27:01;99679.81;;;5.22;100.00
47726;BME280;33483;48.294;16.388;2023-02-01T07:29:29;99683.63;;;5.30;100.00
47726;BME280;33483;48.294;16.388;2023-02-01T07:31:56;99674.94;;;5.37;100.00
47726;BME280;33483;48.294;16.388;2023-02-01T07:34:23;99694.19;;;5.37;100.00
47726;BME280;33483;48.294;16.388;2023-02-01T07:36:51;99684.69;;;5.38;100.00
47726;BME280;33483;48.294;16.388;2023-02-01T07:39:18;99695.94;;;5.40;100.00
47726;BME280;33483;48.294;16.388;2023-02-01T07:41:45;99687.16;;;5.36;100.00
47726;BME280;33483;48.294;16.388;2023-02-01T07:44:13;99692.91;;;5.38;100.00
47726;BME280;33483;48.294;16.388;2023-02-01T07:46:40;99681.97;;;5.43;100.00
47726;BME280;33483;48.294;16.388;2023-02-01T07:49:07;99677.25;;;5.44;100.00
47726;BME280;33483;48.294;16.388;2023-02-01T07:51:34;99674.72;;;5.40;100.00
47726;BME280;33483;48.294;16.388;2023-02-01T07:54:04;99686.72;;;5.43;100.00
47726;BME280;33483;48.294;16.388;2023-02-01T07:56:34;99687.50;;;5.49;100.00
47726;BME280;33483;48.294;16.388;2023-02-01T07:59:03;99678.50;;;5.48;100.00
47726;BME280;33483;48.294;16.388;2023-02-01T08:01:30;99672.78;;;5.52;100.00
47726;BME280;33483;48.294;16.388;2023-02-01T08:03:58;99676.75;;;5.51;100.00
47726;BME280;33483;48.294;16.388;2023-02-01T08:06:28;99677.78;;;5.53;100.00
47726;BME280;33483;48.294;16.388;2023-02-01T08:08:55;99665.09;;;5.61;100.00
47726;BME280;33483;48.294;16.388;2023-02-01T08:11:22;99670.34;;;5.65;100.00
47726;BME280;33483;48.294;16.388;2023-02-01T08:13:50;99660.38;;;5.67;100.00
47726;BME280;33483;48.294;16.388;2023-02-01T08:16:18;99653.16;;;5.70;100.00
47726;BME280;33483;48.294;16.388;2023-02-01T08:18:48;99658.66;;;5.75;100.00
47726;BME280;33483;48.294;16.388;2023-02-01T08:21:16;99663.44;;;5.81;100.00
47726;BME280;33483;48.294;16.388;2023-02-01T08:23:44;99657.00;;;5.84;100.00
47726;BME280;33483;48.294;16.388;2023-02-01T08:26:18;99660.50;;;5.84;100.00
47726;BME280;33483;48.294;16.388;2023-02-01T08:28:51;99665.53;;;5.86;100.00
47726;BME280;33483;48.294;16.388;2023-02-01T08:31:21;99661.28;;;5.90;100.00
47726;BME280;33483;48.294;16.388;2023-02-01T08:33:50;99648.56;;;5.93;100.00
47726;BME280;33483;48.294;16.388;2023-02-01T08:36:18;99648.56;;;5.93;100.00
47726;BME280;33483;48.294;16.388;2023-02-01T08:38:45;99652.81;;;5.94;100.00
47726;BME280;33483;48.294;16.388;2023-02-01T08:41:13;99639.59;;;5.98;100.00
47726;BME280;33483;48.294;16.388;2023-02-01T08:43:41;99640.84;;;6.02;100.00
47726;BME280;33483;48.294;16.388;2023-02-01T08:46:09;99635.09;;;6.06;100.00
47726;BME280;33483;48.294;16.388;2023-02-01T08:48:37;99624.84;;;6.06;100.00
47726;BME280;33483;48.294;16.388;2023-02-01T08:51:09;99629.59;;;6.06;100.00
47726;BME280;33483;48.294;16.388;2023-02-01T08:53:39;99627.59;;;6.01;100.00
47726;BME280;33483;48.294;16.388;2023-02-01T08:56:08;99631.84;;;6.07;100.00
47726;BME280;33483;48.294;16.388;2023-02-01T08:58:39;99640.84;;;6.02;100.00
47726;BME280;33483;48.294;16.388;2023-02-01T09:01:07;99639.84;;;6.00;100.00
47726;BME280;33483;48.294;16.388;2023-02-01T09:03:34;99641.31;;;5.95;100.00
47726;BME280;33483;48.294;16.388;2023-02-01T09:06:02;99642.81;;;5.96;100.00
47726;BME280;33483;48.294;16.388;2023-02-01T09:08:30;99645.09;;;5.98;100.00
47726;BME280;33483;48.294;16.388;2023-02-01T09:11:01;99664.59;;;6.00;100.00
47726;BME280;33483;48.294;16.388;2023-02-01T09:13:32;99653.09;;;6.01;100.00
47726;BME280;33483;48.294;16.388;2023-02-01T09:16:00;99666.09;;;6.01;100.00
47726;BME280;33483;48.294;16.388;2023-02-01T09:18:28;99656.78;;;5.87;100.00
47726;BME280;33483;48.294;16.388;2023-02-01T09:20:55;99642.94;;;5.76;100.00
47726;BME280;33483;48.294;16.388;2023-02-01T09:23:22;99642.16;;;5.70;100.00
47726;BME280;33483;48.294;16.388;2023-02-01T09:25:51;99635.91;;;5.69;100.00
47726;BME280;33483;48.294;16.388;2023-02-01T09:28:19;99634.38;;;5.63;100.00
47726;BME280;33483;48.294;16.388;2023-02-01T09:30:46;99630.63;;;5.66;100.00
47726;BME280;33483;48.294;16.388;2023-02-01T09:33:14;99623.63;;;5.65;100.00
47726;BME280;33483;48.294;16.388;2023-02-01T09:35:41;99621.91;;;5.67;100.00
47726;BME280;33483;48.294;16.388;2023-02-01T09:38:10;99612.13;;;5.61;100.00
47726;BME280;33483;48.294;16.388;2023-02-01T09:40:39;99617.88;;;5.68;100.00
47726;BME280;33483;48.294;16.388;2023-02-01T09:48:27;99604.44;;;5.76;100.00
47726;BME280;33483;48.294;16.388;2023-02-01T09:50:57;99599.66;;;5.71;100.00
47726;BME280;33483;48.294;16.388;2023-02-01T09:55:53;99602.69;;;5.73;100.00
47726;BME280;33483;48.294;16.388;2023-02-01T09:58:24;99593.69;;;5.78;100.00
47726;BME280;33483;48.294;16.388;2023-02-01T10:00:57;99587.44;;;5.78;100.00
47726;BME280;33483;48.294;16.388;2023-02-01T10:03:29;99589.69;;;5.73;100.00
47726;BME280;33483;48.294;16.388;2023-02-01T10:10:55;99574.63;;;6.22;100.00
47726;BME280;33483;48.294;16.388;2023-02-01T10:14:02;99573.41;;;6.45;100.00
47726;BME280;33483;48.294;16.388;2023-02-01T10:29:32;99572.19;;;6.79;100.00
47726;BME280;33483;48.294;16.388;2023-02-01T10:32:01;99573.94;;;6.82;100.00
47726;BME280;33483;48.294;16.388;2023-02-01T10:34:32;99583.22;;;6.85;100.00
47726;BME280;33483;48.294;16.388;2023-02-01T10:39:28;99564.66;;;6.85;100.00
47726;BME280;33483;48.294;16.388;2023-02-01T10:41:55;99561.69;;;6.67;100.00
47726;BME280;33483;48.294;16.388;2023-02-01T10:44:26;99551.91;;;6.60;100.00
47726;BME280;33483;48.294;16.388;2023-02-01T10:46:55;99569.91;;;6.50;100.00
47726;BME280;33483;48.294;16.388;2023-02-01T10:49:42;99568.94;;;6.53;100.00
47726;BME280;33483;48.294;16.388;2023-02-01T10:52:35;99563.66;;;6.50;100.00
47726;BME280;33483;48.294;16.388;2023-02-01T10:57:57;99571.13;;;6.27;100.00
47726;BME280;33483;48.294;16.388;2023-02-01T11:00:25;99569.88;;;6.23;100.00
47726;BME280;33483;48.294;16.388;2023-02-01T11:02:52;99565.63;;;6.22;100.00
47726;BME280;33483;48.294;16.388;2023-02-01T11:05:20;99550.88;;;6.47;100.00
47726;BME280;33483;48.294;16.388;2023-02-01T11:07:49;99567.88;;;6.29;100.00
47726;BME280;33483;48.294;16.388;2023-02-01T11:13:03;99564.59;;;6.08;100.00
47726;BME280;33483;48.294;16.388;2023-02-01T11:15:31;99565.56;;;6.00;100.00
47726;BME280;33483;48.294;16.388;2023-02-01T11:17:58;99546.81;;;6.04;100.00
47726;BME280;33483;48.294;16.388;2023-02-01T11:20:38;99554.34;;;6.03;100.00
47726;BME280;33483;48.294;16.388;2023-02-01T11:23:11;99545.34;;;6.08;100.00
47726;BME280;33483;48.294;16.388;2023-02-01T11:25:47;99554.78;;;5.91;100.00
47726;BME280;33483;48.294;16.388;2023-02-01T11:28:14;99537.25;;;5.88;100.00
47726;BME280;33483;48.294;16.388;2023-02-01T11:30:42;99552.72;;;5.80;100.00
47726;BME280;33483;48.294;16.388;2023-02-01T11:33:12;99554.19;;;5.70;100.00
47726;BME280;33483;48.294;16.388;2023-02-01T11:35:41;99559.16;;;5.66;100.00
47726;BME280;33483;48.294;16.388;2023-02-01T11:38:31;99558.91;;;5.64;100.00
47726;BME280;33483;48.294;16.388;2023-02-01T11:41:40;99561.31;;;5.45;100.00
47726;BME280;33483;48.294;16.388;2023-02-01T11:43:55;99562.28;;;5.42;100.00
47726;BME280;33483;48.294;16.388;2023-02-01T11:46:24;99559.03;;;5.38;100.00
47726;BME280;33483;48.294;16.388;2023-02-01T11:48:57;99557.66;;;5.17;100.00
47726;BME280;33483;48.294;16.388;2023-02-01T11:51:43;99562.53;;;5.02;100.00
47726;BME280;33483;48.294;16.388;2023-02-01T11:54:18;99557.41;;;4.84;100.00
47726;BME280;33483;48.294;16.388;2023-02-01T12:13:01;99558.09;;;4.74;100.00
47726;BME280;33483;48.294;16.388;2023-02-01T12:15:37;99558.41;;;4.81;100.00
47726;BME280;33483;48.294;16.388;2023-02-01T12:21:00;99549.22;;;5.26;100.00
47726;BME280;33483;48.294;16.388;2023-02-01T12:26:13;99536.06;;;6.11;100.00
47726;BME280;33483;48.294;16.388;2023-02-01T12:29:07;99544.38;;;6.33;100.00
47726;BME280;33483;48.294;16.388;2023-02-01T12:39:16;99519.28;;;6.04;100.00
47726;BME280;33483;48.294;16.388;2023-02-01T12:41:59;99495.50;;;5.90;100.00
47726;BME280;33483;48.294;16.388;2023-02-01T12:46:57;99509.53;;;5.92;100.00
47726;BME280;33483;48.294;16.388;2023-02-01T12:49:33;99508.75;;;5.91;100.00
47726;BME280;33483;48.294;16.388;2023-02-01T12:52:03;99503.53;;;5.99;100.00
47726;BME280;33483;48.294;16.388;2023-02-01T12:54:37;99498.84;;;6.27;100.00
47726;BME280;33483;48.294;16.388;2023-02-01T12:57:12;99495.84;;;6.63;100.00
47726;BME280;33483;48.294;16.388;2023-02-01T12:59:44;99494.56;;;6.92;100.00
47726;BME280;33483;48.294;16.388;2023-02-01T13:07:23;99488.88;;;7.47;100.00
47726;BME280;33483;48.294;16.388;2023-02-01T13:09:56;99484.16;;;7.42;100.00
47726;BME280;33483;48.294;16.388;2023-02-01T13:12:28;99483.41;;;7.31;100.00
47726;BME280;33483;48.294;16.388;2023-02-01T13:15:02;99476.66;;;7.32;100.00
47726;BME280;33483;48.294;16.388;2023-02-01T13:17:32;99485.19;;;7.34;100.00
47726;BME280;33483;48.294;16.388;2023-02-01T13:22:48;99468.16;;;7.24;100.00
47726;BME280;33483;48.294;16.388;2023-02-01T13:25:29;99465.66;;;7.26;100.00
47726;BME280;33483;48.294;16.388;2023-02-01T13:28:01;99461.88;;;7.29;100.00
47726;BME280;33483;48.294;16.388;2023-02-01T13:30:34;99460.38;;;7.28;100.00
47726;BME280;33483;48.294;16.388;2023-02-01T13:39:11;99448.38;;;7.20;100.00
47726;BME280;33483;48.294;16.388;2023-02-01T13:41:58;99446.88;;;7.19;100.00
47726;BME280;33483;48.294;16.388;2023-02-01T13:44:28;99449.88;;;7.27;100.00
47726;BME280;33483;48.294;16.388;2023-02-01T13:46:58;99447.13;;;7.27;100.00
47726;BME280;33483;48.294;16.388;2023-02-01T13:49:27;99436.56;;;7.31;100.00
47726;BME280;33483;48.294;16.388;2023-02-01T13:51:56;99439.81;;;7.29;100.00
47726;BME280;33483;48.294;16.388;2023-02-01T13:54:31;99449.81;;;7.32;100.00
47726;BME280;33483;48.294;16.388;2023-02-01T13:57:00;99449.81;;;7.38;100.00
47726;BME280;33483;48.294;16.388;2023-02-01T14:04:49;99458.34;;;7.40;100.00
47726;BME280;33483;48.294;16.388;2023-02-01T14:07:18;99461.63;;;7.33;100.00
47726;BME280;33483;48.294;16.388;2023-02-01T14:09:45;99464.38;;;7.33;100.00
47726;BME280;33483;48.294;16.388;2023-02-01T14:15:16;99464.38;;;7.27;100.00
47726;BME280;33483;48.294;16.388;2023-02-01T14:17:44;99466.44;;;7.16;100.00
47726;BME280;33483;48.294;16.388;2023-02-01T14:23:01;99458.72;;;7.03;100.00
47726;BME280;33483;48.294;16.388;2023-02-01T14:25:33;99469.72;;;6.98;100.00
47726;BME280;33483;48.294;16.388;2023-02-01T14:28:00;99465.00;;;6.93;100.00
47726;BME280;33483;48.294;16.388;2023-02-01T14:30:28;99459.47;;;6.93;100.00
47726;BME280;33483;48.294;16.388;2023-02-01T14:32:55;99456.00;;;6.87;100.00
47726;BME280;33483;48.294;16.388;2023-02-01T14:35:24;99473.03;;;6.85;100.00
47726;BME280;33483;48.294;16.388;2023-02-01T14:37:53;99470.03;;;6.83;100.00
47726;BME280;33483;48.294;16.388;2023-02-01T14:40:26;99466.03;;;6.73;100.00
47726;BME280;33483;48.294;16.388;2023-02-01T14:42:55;99475.81;;;6.68;100.00
47726;BME280;33483;48.294;16.388;2023-02-01T14:50:34;99492.09;;;6.55;100.00
47726;BME280;33483;48.294;16.388;2023-02-01T14:55:42;99495.31;;;6.54;100.00
47726;BME280;33483;48.294;16.388;2023-02-01T14:58:31;99500.59;;;6.41;100.00
47726;BME280;33483;48.294;16.388;2023-02-01T15:01:00;99505.34;;;6.24;100.00
47726;BME280;33483;48.294;16.388;2023-02-01T15:05:56;99504.53;;;5.96;100.00
47726;BME280;33483;48.294;16.388;2023-02-01T15:08:26;99499.25;;;5.87;100.00
47726;BME280;33483;48.294;16.388;2023-02-01T15:10:57;99506.72;;;5.75;100.00
47726;BME280;33483;48.294;16.388;2023-02-01T15:13:27;99508.66;;;5.63;100.00
47726;BME280;33483;48.294;16.388;2023-02-01T15:16:05;99500.13;;;5.56;100.00
47726;BME280;33483;48.294;16.388;2023-02-01T15:18:36;99509.59;;;5.49;100.00
47726;BME280;33483;48.294;16.388;2023-02-01T15:21:04;99515.09;;;5.44;100.00
47726;BME280;33483;48.294;16.388;2023-02-01T15:24:09;99518.53;;;5.39;100.00
47726;BME280;33483;48.294;16.388;2023-02-01T15:26:36;99517.81;;;5.38;100.00
47726;BME280;33483;48.294;16.388;2023-02-01T15:29:03;99523.53;;;5.35;100.00
47726;BME280;33483;48.294;16.388;2023-02-01T15:31:31;99533.00;;;5.34;100.00
47726;BME280;33483;48.294;16.388;2023-02-01T15:34:00;99518.75;;;5.30;100.00
47726;BME280;33483;48.294;16.388;2023-02-01T15:36:27;99519.22;;;5.23;100.00
47726;BME280;33483;48.294;16.388;2023-02-01T15:41:38;99516.94;;;5.21;100.00